createdAt,value
2022-10-11T00:00:58.542Z,99833.81
2022-10-11T00:03:28.288Z,99834.81
2022-10-11T00:05:56.324Z,99831.31
2022-10-11T00:08:24.274Z,99833.19
2022-10-11T00:11:00.435Z,99828.03
2022-10-11T00:13:29.175Z,99832.47
2022-10-11T00:15:57.732Z,99830.72
2022-10-11T00:18:27.752Z,99834.25
2022-10-11T00:21:03.411Z,99833.47
2022-10-11T00:23:31.589Z,99823.59
2022-10-11T00:26:00.103Z,99828.84
2022-10-11T00:28:28.556Z,99825.41
2022-10-11T00:30:56.622Z,99824.53
2022-10-11T00:33:24.634Z,99823.69
2022-10-11T00:35:54.000Z,99832.47
2022-10-11T00:38:22.096Z,99822.69
2022-10-11T00:40:52.624Z,99827.84
2022-10-11T00:43:23.427Z,99825.06
2022-10-11T00:46:02.841Z,99834.59
2022-10-11T00:48:36.620Z,99819.81
2022-10-11T00:51:11.567Z,99826.94
2022-10-11T00:53:39.626Z,99829.66
2022-10-11T00:56:12.427Z,99829.56
2022-10-11T00:58:43.883Z,99824.25
2022-10-11T01:01:12.242Z,99832.25
2022-10-11T01:03:41.793Z,99835.81
2022-10-11T01:06:11.118Z,99835.88
2022-10-11T01:08:40.019Z,99833.94
2022-10-11T01:11:08.366Z,99828.63
2022-10-11T01:13:47.720Z,99830.50
2022-10-11T01:16:28.194Z,99825.28
2022-10-11T01:19:06.109Z,99829.69
2022-10-11T01:21:43.624Z,99831.47
2022-10-11T01:24:31.273Z,99834.13
2022-10-11T01:27:39.575Z,99842.94
2022-10-11T01:30:20.354Z,99827.84
2022-10-11T01:32:52.052Z,99836.75
2022-10-11T01:35:25.979Z,99838.53
2022-10-11T01:38:01.649Z,99842.91
2022-10-11T01:40:36.081Z,99833.19
2022-10-11T01:43:05.997Z,99839.25
2022-10-11T01:45:37.455Z,99840.56
2022-10-11T01:48:07.782Z,99828.22
2022-10-11T01:50:40.292Z,99823.84
2022-10-11T01:53:38.829Z,99819.63
2022-10-11T01:56:20.951Z,99818.50
2022-10-11T01:59:03.476Z,99816.84
2022-10-11T02:01:44.166Z,99811.66
2022-10-11T02:04:18.539Z,99813.47
2022-10-11T02:06:58.328Z,99809.94
2022-10-11T02:09:35.600Z,99805.50
2022-10-11T02:12:08.339Z,99803.66
2022-10-11T02:14:40.747Z,99815.78
2022-10-11T02:17:13.752Z,99804.28
2022-10-11T02:19:45.882Z,99801.50
2022-10-11T02:22:19.686Z,99806.94
2022-10-11T02:24:50.610Z,99816.81
2022-10-11T02:27:22.838Z,99809.81
2022-10-11T02:29:54.307Z,99816.91
2022-10-11T02:32:26.671Z,99815.19
2022-10-11T02:34:56.532Z,99809.03
2022-10-11T02:37:32.263Z,99811.69
2022-10-11T02:40:07.656Z,99804.59
2022-10-11T02:42:40.104Z,99805.34
2022-10-11T02:45:14.165Z,99792.94
2022-10-11T02:47:44.585Z,99788.16
2022-10-11T02:50:13.432Z,99790.03
2022-10-11T02:52:42.173Z,99790.09
2022-10-11T02:55:11.814Z,99789.31
2022-10-11T02:57:39.953Z,99791.16
2022-10-11T03:00:09.146Z,99786.78
2022-10-11T03:02:37.206Z,99782.22
2022-10-11T03:05:07.239Z,99781.97
2022-10-11T03:07:35.310Z,99782.91
2022-10-11T03:10:04.063Z,99780.16
2022-10-11T03:12:32.081Z,99786.22
2022-10-11T03:15:00.041Z,99779.19
2022-10-11T03:17:37.183Z,99784.44
2022-10-11T03:20:08.500Z,99771.00
2022-10-11T03:22:36.731Z,99770.78
2022-10-11T03:25:05.391Z,99770.00
2022-10-11T03:27:33.819Z,99766.53
2022-10-11T03:30:02.154Z,99763.88
2022-10-11T03:32:30.477Z,99759.38
2022-10-11T03:34:58.905Z,99763.88
2022-10-11T03:37:28.281Z,99768.25
2022-10-11T03:39:56.232Z,99771.69
2022-10-11T03:42:24.214Z,99771.41
2022-10-11T03:44:52.169Z,99773.41
2022-10-11T03:47:20.727Z,99767.28
2022-10-11T03:49:48.854Z,99762.09
2022-10-11T03:52:16.822Z,99782.47
2022-10-11T03:54:46.282Z,99780.75
2022-10-11T03:57:14.341Z,99785.09
2022-10-11T03:59:42.556Z,99780.59
2022-10-11T04:02:10.570Z,99779.75
2022-10-11T04:04:38.848Z,99779.75
2022-10-11T04:07:06.844Z,99774.03
2022-10-11T04:09:35.144Z,99778.38
2022-10-11T04:12:06.279Z,99777.56
2022-10-11T04:14:34.187Z,99781.00
2022-10-11T04:17:02.150Z,99770.34
2022-10-11T04:19:30.112Z,99772.94
2022-10-11T04:21:58.200Z,99781.63
2022-10-11T04:24:26.171Z,99771.19
2022-10-11T04:26:54.111Z,99775.59
2022-10-11T04:29:23.494Z,99778.25
2022-10-11T04:31:51.634Z,99785.06
2022-10-11T04:34:20.082Z,99785.91
2022-10-11T04:36:49.980Z,99780.69
2022-10-11T04:39:18.318Z,99782.91
2022-10-11T04:41:46.380Z,99778.59
2022-10-11T04:44:14.549Z,99786.56
2022-10-11T04:46:44.016Z,99770.75
2022-10-11T04:49:11.971Z,99769.97
2022-10-11T04:51:40.059Z,99777.00
2022-10-11T04:54:08.057Z,99774.41
2022-10-11T04:56:35.981Z,99789.28
2022-10-11T04:59:04.257Z,99793.59
2022-10-11T05:01:32.185Z,99785.78
2022-10-11T05:04:04.257Z,99797.38
2022-10-11T05:06:32.305Z,99792.25
2022-10-11T05:09:00.668Z,99798.56
2022-10-11T05:11:28.767Z,99797.66
2022-10-11T05:13:56.953Z,99795.94
2022-10-11T05:16:27.251Z,99800.53
2022-10-11T05:18:55.203Z,99808.53
2022-10-11T05:21:26.485Z,99802.34
2022-10-11T05:23:56.493Z,99811.28
2022-10-11T05:26:26.025Z,99809.63
2022-10-11T05:28:54.013Z,99817.66
2022-10-11T05:31:22.375Z,99815.03
2022-10-11T05:33:50.597Z,99820.38
2022-10-11T05:36:18.688Z,99813.34
2022-10-11T05:38:48.425Z,99815.00
2022-10-11T05:41:17.075Z,99813.06
2022-10-11T05:43:45.950Z,99816.66
2022-10-11T05:46:14.247Z,99823.84
2022-10-11T05:48:42.951Z,99823.97
2022-10-11T05:51:12.450Z,99821.84
2022-10-11T05:53:40.935Z,99823.28
2022-10-11T05:56:19.774Z,99822.63
2022-10-11T05:58:47.793Z,99820.19
2022-10-11T06:01:24.000Z,99827.28
2022-10-11T06:03:52.309Z,99825.69
2022-10-11T06:06:21.261Z,99830.25
2022-10-11T06:08:49.506Z,99833.88
2022-10-11T06:11:21.499Z,99830.38
2022-10-11T06:13:49.776Z,99835.66
2022-10-11T06:16:17.706Z,99832.06
2022-10-11T06:18:45.726Z,99832.91
2022-10-11T06:21:15.558Z,99832.84
2022-10-11T06:23:43.628Z,99835.63
2022-10-11T06:26:11.961Z,99836.00
2022-10-11T06:28:41.345Z,99837.03
2022-10-11T06:31:09.594Z,99839.75
2022-10-11T06:33:38.027Z,99837.03
2022-10-11T06:36:08.501Z,99843.50
2022-10-11T06:38:44.544Z,99841.00
2022-10-11T06:41:14.935Z,99848.59
2022-10-11T06:43:44.950Z,99845.91
2022-10-11T06:46:13.321Z,99839.53
2022-10-11T06:48:43.399Z,99840.56
2022-10-11T06:51:11.559Z,99841.69
2022-10-11T06:53:39.738Z,99846.00
2022-10-11T06:56:10.764Z,99848.69
2022-10-11T06:58:39.409Z,99844.47
2022-10-11T07:01:10.772Z,99849.00
2022-10-11T07:03:39.034Z,99858.06
2022-10-11T07:06:10.607Z,99864.38
2022-10-11T07:08:39.436Z,99857.78
2022-10-11T07:11:09.909Z,99866.00
2022-10-11T07:13:38.682Z,99871.34
2022-10-11T07:16:10.221Z,99878.59
2022-10-11T07:18:38.633Z,99874.78
2022-10-11T07:21:08.011Z,99881.16
2022-10-11T07:23:36.345Z,99883.03
2022-10-11T07:26:04.925Z,99891.00
2022-10-11T07:28:33.290Z,99903.31
2022-10-11T07:31:06.260Z,99903.31
2022-10-11T07:33:35.940Z,99895.28
2022-10-11T07:36:05.110Z,99902.44
2022-10-11T07:38:33.832Z,99907.53
2022-10-11T07:41:06.445Z,99910.88
2022-10-11T07:43:34.570Z,99904.44
2022-10-11T07:46:04.566Z,99918.44
2022-10-11T07:48:36.115Z,99920.31
2022-10-11T07:51:06.714Z,99914.44
2022-10-11T07:53:40.745Z,99932.00
2022-10-11T07:56:10.213Z,99925.19
2022-10-11T07:58:38.189Z,99932.28
2022-10-11T08:01:07.084Z,99937.75
2022-10-11T08:03:36.886Z,99945.03
2022-10-11T08:06:08.285Z,99945.09
2022-10-11T08:08:37.206Z,99953.00
2022-10-11T08:11:05.688Z,99946.88
2022-10-11T08:13:34.057Z,99946.97
2022-10-11T08:16:02.147Z,99949.81
2022-10-11T08:18:30.302Z,99954.31
2022-10-11T08:20:59.942Z,99950.75
2022-10-11T08:23:28.252Z,99950.69
2022-10-11T08:25:58.770Z,99954.22
2022-10-11T08:28:26.867Z,99957.75
2022-10-11T08:30:56.016Z,99949.75
2022-10-11T08:33:26.496Z,99958.28
2022-10-11T08:35:55.413Z,99953.84
2022-10-11T08:38:25.014Z,99961.94
2022-10-11T08:40:57.016Z,99962.97
2022-10-11T08:43:43.955Z,99972.84
2022-10-11T08:46:14.363Z,99965.88
2022-10-11T08:48:44.437Z,99965.84
2022-10-11T08:51:20.620Z,99975.31
2022-10-11T08:53:54.655Z,99975.56
2022-10-11T08:56:25.482Z,99976.56
2022-10-11T08:58:57.969Z,99972.16
2022-10-11T09:01:28.084Z,99982.75
2022-10-11T09:03:57.547Z,99979.25
2022-10-11T09:06:44.331Z,99976.66
2022-10-11T09:09:28.280Z,99984.78
2022-10-11T09:12:10.591Z,99986.31
2022-10-11T09:14:54.829Z,99991.66
2022-10-11T09:17:37.460Z,99998.13
2022-10-11T09:20:28.440Z,99990.41
2022-10-11T09:23:02.109Z,99998.50
2022-10-11T09:25:35.468Z,99999.47
2022-10-11T09:28:23.965Z,99996.84
2022-10-11T09:30:56.553Z,99993.44
2022-10-11T09:33:33.020Z,100004.13
2022-10-11T09:36:03.433Z,100002.34
2022-10-11T09:38:42.208Z,100002.25
2022-10-11T09:41:19.254Z,100011.16
2022-10-11T09:43:49.484Z,100011.19
2022-10-11T09:46:23.454Z,100011.16
2022-10-11T09:48:51.945Z,100009.25
2022-10-11T09:51:22.844Z,100003.66
2022-10-11T09:53:57.100Z,100001.88
2022-10-11T09:56:29.170Z,100004.66
2022-10-11T09:59:26.428Z,100006.41
2022-10-11T10:02:20.034Z,100004.66
2022-10-11T10:05:00.400Z,100001.13
2022-10-11T10:07:30.079Z,100010.84
2022-10-11T10:10:00.606Z,100000.09
2022-10-11T10:12:31.857Z,100003.75
2022-10-11T10:15:06.984Z,100008.41
2022-10-11T10:17:36.902Z,100004.13
2022-10-11T10:20:06.359Z,100013.03
2022-10-11T10:22:37.013Z,100006.63
2022-10-11T10:25:09.388Z,100012.91
2022-10-11T10:27:38.922Z,100006.72
2022-10-11T10:30:17.120Z,100013.69
2022-10-11T10:32:54.121Z,100002.19
2022-10-11T10:35:42.481Z,100006.63
2022-10-11T10:38:16.752Z,100006.63
2022-10-11T10:40:48.671Z,100008.41
2022-10-11T10:43:20.068Z,100015.63
2022-10-11T10:46:28.687Z,100019.25
2022-10-11T10:49:34.907Z,100018.41
2022-10-11T10:52:06.652Z,100015.78
2022-10-11T10:54:41.820Z,100014.00
2022-10-11T10:57:19.193Z,100013.09
2022-10-11T11:00:06.621Z,100019.31
2022-10-11T11:02:44.300Z,100013.97
2022-10-11T11:05:27.370Z,100012.22
2022-10-11T11:08:04.300Z,100013.09
2022-10-11T11:10:37.882Z,100009.56
2022-10-11T11:13:20.444Z,100010.44
2022-10-11T11:16:02.274Z,100013.00
2022-10-11T11:18:38.819Z,100010.41
2022-10-11T11:21:18.557Z,100007.69
2022-10-11T11:23:56.462Z,100013.84
2022-10-11T11:26:32.820Z,100009.28
2022-10-11T11:29:14.579Z,100009.44
2022-10-11T11:31:59.064Z,100013.97
2022-10-11T11:34:30.436Z,100013.13
2022-10-11T11:37:03.243Z,100012.13
2022-10-11T11:39:35.064Z,100010.44
2022-10-11T11:42:08.918Z,100007.72
2022-10-11T11:44:41.448Z,100005.94
2022-10-11T11:47:18.017Z,100004.25
2022-10-11T11:49:49.542Z,100005.16
2022-10-11T11:52:24.890Z,99998.94
2022-10-11T11:55:04.152Z,99998.94
2022-10-11T11:57:49.208Z,99994.53
2022-10-11T12:00:21.168Z,99994.50
2022-10-11T12:02:54.485Z,99990.00
2022-10-11T12:05:25.080Z,99982.88
2022-10-11T12:07:59.644Z,99982.03
2022-10-11T12:10:35.355Z,99972.44
2022-10-11T12:13:24.825Z,99970.63
2022-10-11T12:16:21.428Z,99973.28
2022-10-11T12:19:01.898Z,99971.38
2022-10-11T12:21:33.625Z,99973.09
2022-10-11T12:24:10.522Z,99972.22
2022-10-11T12:26:44.288Z,99972.97
2022-10-11T12:29:48.250Z,99969.53
2022-10-11T12:32:50.076Z,99963.09
2022-10-11T12:35:48.633Z,99964.88
2022-10-11T12:38:20.941Z,99961.53
2022-10-11T12:40:49.930Z,99954.53
2022-10-11T12:43:37.731Z,99959.84
2022-10-11T12:46:40.293Z,99954.66
2022-10-11T12:49:46.113Z,99951.13
2022-10-11T12:52:34.160Z,99951.97
2022-10-11T12:55:14.491Z,99951.13
2022-10-11T12:57:59.210Z,99942.25
2022-10-11T13:00:31.099Z,99939.66
2022-10-11T13:03:02.090Z,99930.72
2022-10-11T13:05:35.635Z,99935.94
2022-10-11T13:08:07.149Z,99938.59
2022-10-11T13:10:41.781Z,99935.06
2022-10-11T13:13:18.717Z,99933.97
2022-10-11T13:15:47.222Z,99935.63
2022-10-11T13:18:16.904Z,99931.94
2022-10-11T13:20:45.378Z,99923.94
2022-10-11T13:23:24.138Z,99926.88
2022-10-11T13:25:53.160Z,99928.38
2022-10-11T13:28:21.890Z,99924.81
2022-10-11T13:30:54.028Z,99926.69
2022-10-11T13:33:26.295Z,99928.50
2022-10-11T13:35:55.060Z,99925.81
2022-10-11T13:38:27.949Z,99917.78
2022-10-11T13:40:57.731Z,99911.75
2022-10-11T13:43:28.239Z,99912.66
2022-10-11T13:45:58.323Z,99918.84
2022-10-11T13:48:31.493Z,99917.00
2022-10-11T13:51:07.505Z,99918.06
2022-10-11T13:53:37.337Z,99918.97
2022-10-11T13:56:09.515Z,99921.47
2022-10-11T13:58:40.614Z,99916.16
2022-10-11T14:01:19.219Z,99926.00
2022-10-11T14:03:50.922Z,99917.34
2022-10-11T14:06:19.006Z,99914.69
2022-10-11T14:08:52.954Z,99912.16
2022-10-11T14:11:35.376Z,99920.13
2022-10-11T14:14:30.064Z,99910.44
2022-10-11T14:17:00.080Z,99909.59
2022-10-11T14:19:27.996Z,99907.81
2022-10-11T14:21:55.933Z,99910.47
2022-10-11T14:24:25.457Z,99918.44
2022-10-11T14:26:55.932Z,99923.75
2022-10-11T14:29:27.415Z,99917.50
2022-10-11T14:32:00.182Z,99921.94
2022-10-11T14:34:29.090Z,99925.50
2022-10-11T14:36:57.025Z,99917.53
2022-10-11T14:39:28.651Z,99917.59
2022-10-11T14:41:56.678Z,99918.47
2022-10-11T14:44:24.994Z,99924.63
2022-10-11T14:46:55.113Z,99923.75
2022-10-11T14:49:25.147Z,99924.59
2022-10-11T14:51:54.800Z,99926.41
2022-10-11T14:54:25.064Z,99926.41
2022-10-11T14:56:56.035Z,99930.81
2022-10-11T14:59:27.060Z,99920.19
2022-10-11T15:01:55.336Z,99924.63
2022-10-11T15:04:25.442Z,99926.38
2022-10-11T15:06:55.220Z,99926.38
2022-10-11T15:09:24.509Z,99924.59
2022-10-11T15:11:55.297Z,99921.97
2022-10-11T15:14:24.327Z,99922.84
2022-10-11T15:16:52.473Z,99924.59
2022-10-11T15:19:22.569Z,99909.56
2022-10-11T15:21:50.882Z,99914.84
2022-10-11T15:24:19.945Z,99916.63
2022-10-11T15:26:48.751Z,99914.84
2022-10-11T15:29:20.372Z,99903.34
2022-10-11T15:31:49.339Z,99910.47
2022-10-11T15:34:17.377Z,99908.66
2022-10-11T15:36:46.823Z,99914.84
2022-10-11T15:39:26.889Z,99904.28
2022-10-11T15:41:55.180Z,99908.69
2022-10-11T15:44:24.591Z,99906.97
2022-10-11T15:46:52.679Z,99914.91
2022-10-11T15:49:20.684Z,99904.31
2022-10-11T15:51:48.627Z,99907.88
2022-10-11T15:54:16.570Z,99909.59
2022-10-11T15:56:44.528Z,99915.78
2022-10-11T15:59:12.878Z,99908.69
2022-10-11T16:01:42.239Z,99909.56
2022-10-11T16:04:10.573Z,99907.78
2022-10-11T16:06:38.618Z,99911.31
2022-10-11T16:09:06.773Z,99914.88
2022-10-11T16:11:34.703Z,99908.69
2022-10-11T16:14:02.655Z,99908.69
2022-10-11T16:16:30.609Z,99920.19
2022-10-11T16:18:59.890Z,99920.16
2022-10-11T16:21:27.906Z,99914.84
2022-10-11T16:23:55.813Z,99914.84
2022-10-11T16:26:23.746Z,99910.41
2022-10-11T16:28:51.843Z,99905.13
2022-10-11T16:31:21.064Z,99921.06
2022-10-11T16:33:50.207Z,99908.69
2022-10-11T16:36:35.917Z,99913.09
2022-10-11T16:39:07.850Z,99914.88
2022-10-11T16:41:35.913Z,99913.09
2022-10-11T16:44:04.563Z,99913.06
2022-10-11T16:46:32.836Z,99913.06
2022-10-11T16:49:01.968Z,99906.81
2022-10-11T16:51:31.318Z,99907.69
2022-10-11T16:53:59.296Z,99908.59
2022-10-11T16:56:27.801Z,99912.13
2022-10-11T16:58:56.043Z,99898.00
2022-10-11T17:01:25.163Z,99903.22
2022-10-11T17:03:53.987Z,99907.63
2022-10-11T17:06:21.996Z,99908.53
2022-10-11T17:08:51.442Z,99909.41
2022-10-11T17:11:21.693Z,99905.81
2022-10-11T17:13:51.583Z,99908.41
2022-10-11T17:16:19.792Z,99911.94
2022-10-11T17:18:47.841Z,99921.66
2022-10-11T17:21:19.873Z,99919.03
2022-10-11T17:23:48.640Z,99922.50
2022-10-11T17:26:20.923Z,99921.59
2022-10-11T17:28:49.302Z,99921.63
2022-10-11T17:31:18.156Z,99923.34
2022-10-11T17:33:46.560Z,99926.84
2022-10-11T17:36:18.548Z,99932.97
2022-10-11T17:38:46.686Z,99934.72
2022-10-11T17:41:14.645Z,99925.00
2022-10-11T17:43:44.011Z,99926.75
2022-10-11T17:46:13.500Z,99923.25
2022-10-11T17:48:41.908Z,99923.19
2022-10-11T17:51:11.537Z,99925.81
2022-10-11T17:53:40.039Z,99933.75
2022-10-11T17:56:09.473Z,99938.06
2022-10-11T17:58:38.121Z,99941.53
2022-10-11T18:01:11.000Z,99933.59
2022-10-11T18:03:39.468Z,99938.88
2022-10-11T18:06:09.874Z,99929.97
2022-10-11T18:08:40.524Z,99931.63
2022-10-11T18:11:11.950Z,99929.91
2022-10-11T18:13:42.856Z,99943.16
2022-10-11T18:16:16.811Z,99922.81
2022-10-11T18:18:44.893Z,99925.47
2022-10-11T18:21:13.794Z,99936.03
2022-10-11T18:23:42.111Z,99926.25
2022-10-11T18:26:11.543Z,99922.44
2022-10-11T18:28:40.755Z,99931.34
2022-10-11T18:31:13.158Z,99933.06
2022-10-11T18:33:45.573Z,99936.56
2022-10-11T18:36:15.014Z,99936.56
2022-10-11T18:38:46.750Z,99942.75
2022-10-11T18:41:16.792Z,99937.19
2022-10-11T18:43:49.818Z,99936.97
2022-10-11T18:46:18.208Z,99937.13
2022-10-11T18:48:50.306Z,99942.47
2022-10-11T18:51:20.155Z,99946.91
2022-10-11T18:53:48.966Z,99952.16
2022-10-11T18:56:20.555Z,99946.03
2022-10-11T18:58:50.196Z,99948.66
2022-10-11T19:01:20.117Z,99947.75
2022-10-11T19:03:52.511Z,99951.16
2022-10-11T19:06:22.601Z,99956.47
2022-10-11T19:08:53.090Z,99959.19
2022-10-11T19:11:25.484Z,99960.16
2022-10-11T19:13:58.333Z,99966.38
2022-10-11T19:16:27.822Z,99964.72
2022-10-11T19:18:57.583Z,99966.44
2022-10-11T19:21:28.109Z,99970.06
2022-10-11T19:23:56.737Z,99976.25
2022-10-11T19:26:30.072Z,99973.59
2022-10-11T19:29:00.044Z,99967.97
2022-10-11T19:31:28.965Z,99974.38
2022-10-11T19:33:59.701Z,99967.38
2022-10-11T19:36:31.396Z,99964.69
2022-10-11T19:39:02.176Z,99956.66
2022-10-11T19:41:30.315Z,99969.09
2022-10-11T19:43:59.117Z,99966.28
2022-10-11T19:46:49.859Z,99969.88
2022-10-11T19:49:20.417Z,99967.25
2022-10-11T19:51:48.495Z,99967.22
2022-10-11T19:54:19.904Z,99958.41
2022-10-11T19:56:48.305Z,99967.38
2022-10-11T19:59:16.934Z,99970.03
2022-10-11T20:01:50.988Z,99972.66
2022-10-11T20:07:09.786Z,99971.75
2022-10-11T20:09:37.844Z,99965.59
2022-10-11T20:12:06.064Z,99966.47
2022-10-11T20:14:34.029Z,99967.41
2022-10-11T20:17:02.047Z,99971.22
2022-10-11T20:19:31.881Z,99972.22
2022-10-11T20:22:00.333Z,99974.94
2022-10-11T20:24:32.708Z,99971.59
2022-10-11T20:27:01.768Z,99980.56
2022-10-11T20:29:29.910Z,99981.53
2022-10-11T20:31:59.010Z,99975.44
2022-10-11T20:34:27.668Z,99976.31
2022-10-11T20:36:57.391Z,99984.25
2022-10-11T20:39:25.597Z,99981.63
2022-10-11T20:41:53.537Z,99990.47
2022-10-11T20:44:24.216Z,99991.25
2022-10-11T20:46:52.162Z,99983.19
2022-10-11T20:49:20.841Z,99986.69
2022-10-11T20:51:49.227Z,99992.88
2022-10-11T20:54:18.695Z,99999.97
2022-10-11T20:56:46.697Z,100001.75
2022-10-11T20:59:14.660Z,99994.59
2022-10-11T21:01:42.850Z,99997.28
2022-10-11T21:04:18.533Z,99992.72
2022-10-11T21:06:46.843Z,99991.44
2022-10-11T21:09:16.660Z,99992.41
2022-10-11T21:11:46.595Z,99999.56
2022-10-11T21:14:17.318Z,99993.56
2022-10-11T21:16:45.278Z,99999.78
2022-10-11T21:19:16.201Z,100002.38
2022-10-11T21:21:49.676Z,99994.41
2022-10-11T21:24:24.049Z,100002.34
2022-10-11T21:26:58.172Z,100002.38
2022-10-11T21:29:28.315Z,100004.22
2022-10-11T21:31:56.299Z,100005.94
2022-10-11T21:34:24.198Z,100006.78
2022-10-11T21:36:52.146Z,100008.56
2022-10-11T21:39:20.198Z,100000.59
2022-10-11T21:41:48.199Z,100000.50
2022-10-11T21:44:17.616Z,99996.25
2022-10-11T21:47:05.927Z,100001.00
2022-10-11T21:49:33.945Z,99998.63
2022-10-11T21:52:02.096Z,99997.78
2022-10-11T21:54:32.893Z,100001.22
2022-10-11T21:57:00.928Z,100001.03
2022-10-11T21:59:30.247Z,100000.28
2022-10-11T22:02:01.831Z,99998.50
2022-10-11T22:04:29.954Z,100001.13
2022-10-11T22:06:58.011Z,99998.50
2022-10-11T22:09:27.724Z,100003.00
2022-10-11T22:11:55.691Z,99997.78
2022-10-11T22:14:23.798Z,100004.03
2022-10-11T22:16:53.206Z,100010.97
2022-10-11T22:19:21.309Z,100009.25
2022-10-11T22:21:52.374Z,100011.03
2022-10-11T22:24:20.360Z,100009.28
2022-10-11T22:26:48.292Z,100012.91
2022-10-11T22:29:16.306Z,100009.41
2022-10-11T22:31:44.247Z,100012.91
2022-10-11T22:34:13.544Z,100011.22
2022-10-11T22:36:41.545Z,100014.91
2022-10-11T22:39:10.211Z,100012.31
2022-10-11T22:41:38.935Z,100012.28
2022-10-11T22:44:07.205Z,100018.34
2022-10-11T22:46:35.300Z,100017.44
2022-10-11T22:49:03.242Z,100015.69
2022-10-11T22:51:32.583Z,100013.13
2022-10-11T22:54:00.508Z,100018.47
2022-10-11T22:56:28.539Z,100015.00
2022-10-11T22:58:56.551Z,100011.25
2022-10-11T23:01:24.502Z,100011.28
2022-10-11T23:03:52.533Z,100007.66
2022-10-11T23:06:20.499Z,100003.19
2022-10-11T23:08:49.836Z,100004.94
2022-10-11T23:11:18.150Z,100003.22
2022-10-11T23:13:46.086Z,100004.84
2022-10-11T23:16:14.683Z,99992.56
2022-10-11T23:18:43.065Z,99987.22
2022-10-11T23:21:11.506Z,99988.88
2022-10-11T23:23:40.313Z,100000.28
2022-10-11T23:26:12.080Z,99996.66
2022-10-11T23:28:40.460Z,100002.75
2022-10-11T23:31:09.797Z,99991.50
2022-10-11T23:33:37.853Z,100004.72
2022-10-11T23:36:06.274Z,99997.38
2022-10-11T23:38:34.224Z,99996.59
2022-10-11T23:41:02.282Z,99997.31
2022-10-11T23:43:31.638Z,100000.16
2022-10-11T23:45:59.730Z,99995.84
2022-10-11T23:48:27.933Z,99997.78
2022-10-11T23:50:55.847Z,100003.19
2022-10-11T23:53:23.812Z,100008.63
2022-10-11T23:55:51.961Z,99996.97
2022-10-11T23:58:19.891Z,100006.44
